Time;durP1;ratioP1;P1;durP2;ratioP2;P2;SDS_P1;SDS_P2;PMS_P1;PMS_P2;Temp;Humidity;BMP_temperature;BMP_pressure;BME280_temperature;BME280_humidity;BME280_pressure;Samples;Min_cycle;Max_cycle;Signal;HPM_P1;HPM_P2
2022/06/28 00:00:30;;;;;;;6.05;5.55;;;21.10;95.00;;;;;;5072795;28;20020;-73
2022/06/28 00:02:56;;;;;;;6.45;5.32;;;21.10;95.00;;;;;;5054868;28;20103;-74
2022/06/28 00:05:22;;;;;;;11.77;5.90;;;21.10;94.40;;;;;;5072877;28;20447;-74
2022/06/28 00:07:48;;;;;;;6.53;5.78;;;21.00;94.40;;;;;;5072831;28;20029;-73
2022/06/28 00:10:15;;;;;;;6.82;5.38;;;21.00;96.30;;;;;;5072813;28;20359;-73
2022/06/28 00:12:41;;;;;;;6.70;5.53;;;20.90;96.80;;;;;;5037951;28;20056;-74
2022/06/28 00:17:55;;;;;;;7.05;5.38;;;20.80;97.90;;;;;;5052972;28;20135;-73
2022/06/28 00:20:21;;;;;;;6.97;6.10;;;20.70;98.40;;;;;;5034784;28;20581;-74
2022/06/28 00:22:47;;;;;;;7.55;5.28;;;20.60;99.40;;;;;;5052778;28;20061;-75
2022/06/28 00:25:13;;;;;;;6.55;5.80;;;20.60;99.90;;;;;;5052530;28;20108;-74
2022/06/28 00:27:39;;;;;;;8.38;5.68;;;20.60;99.90;;;;;;5034884;28;20021;-74
2022/06/28 00:30:06;;;;;;;6.75;5.57;;;20.60;99.90;;;;;;5052600;28;20052;-73
2022/06/28 00:32:32;;;;;;;10.00;6.97;;;20.50;99.90;;;;;;5052708;28;20029;-74
2022/06/28 00:34:59;;;;;;;6.70;5.57;;;20.50;99.90;;;;;;5055584;28;20143;-73
2022/06/28 00:37:25;;;;;;;7.57;6.38;;;20.60;99.90;;;;;;5056311;28;20029;-73
2022/06/28 00:39:51;;;;;;;7.22;6.00;;;20.60;99.90;;;;;;5056113;28;20028;-73
2022/06/28 00:42:17;;;;;;;6.60;6.00;;;20.50;99.90;;;;;;5073417;28;20028;-75
2022/06/28 00:44:43;;;;;;;10.23;5.68;;;20.50;99.90;;;;;;5076078;28;20382;-73
2022/06/28 00:47:09;;;;;;;5.93;5.38;;;20.60;99.90;;;;;;5058171;28;20029;-73
2022/06/28 00:49:39;;;;;;;6.68;6.07;;;20.60;98.60;;;;;;5076169;28;20024;-73
2022/06/28 00:52:06;;;;;;;6.10;5.60;;;20.50;99.90;;;;;;5076130;28;20025;-73
2022/06/28 00:54:32;;;;;;;6.60;6.00;;;20.60;99.90;;;;;;5057919;28;20474;-73
2022/06/28 00:56:58;;;;;;;10.07;6.25;;;20.60;99.90;;;;;;5075898;28;20107;-74
2022/06/28 00:59:24;;;;;;;6.68;5.88;;;20.50;99.90;;;;;;5057700;28;20024;-74
2022/06/28 01:01:50;;;;;;;9.75;6.55;;;20.60;99.90;;;;;;5075895;28;20032;-74
2022/06/28 01:04:16;;;;;;;8.65;6.22;;;20.50;99.90;;;;;;5075963;28;20482;-73
2022/06/28 01:06:42;;;;;;;9.77;6.63;;;20.50;99.90;;;;;;5075816;28;20060;-73
2022/06/28 01:09:08;;;;;;;7.38;5.90;;;20.40;99.90;;;;;;5057797;28;20367;-74
2022/06/28 01:11:34;;;;;;;5.95;5.45;;;20.40;99.90;;;;;;5049694;28;20218;-74
2022/06/28 01:14:03;;;;;;;6.05;5.47;;;20.30;99.90;;;;;;5055598;28;20048;-74
2022/06/28 01:16:29;;;;;;;7.93;6.70;;;20.30;99.90;;;;;;5055440;28;20044;-73
2022/06/28 01:18:55;;;;;;;7.38;5.80;;;20.20;99.90;;;;;;5055547;28;20526;-73
2022/06/28 01:21:26;;;;;;;7.55;6.85;;;20.30;99.90;;;;;;5055262;28;20124;-74
2022/06/28 01:23:51;;;;;;;7.22;6.50;;;20.20;99.90;;;;;;5055431;28;20025;-73
2022/06/28 01:26:22;;;;;;;8.15;6.38;;;20.20;99.90;;;;;;5055386;28;20040;-73
2022/06/28 01:28:51;;;;;;;6.47;5.97;;;20.10;99.90;;;;;;5055559;28;20028;-74
2022/06/28 01:31:19;;;;;;;7.30;6.40;;;20.10;99.90;;;;;;5055208;28;20021;-75
2022/06/28 01:33:45;;;;;;;7.25;5.93;;;20.00;99.90;;;;;;5055232;28;20439;-73
2022/06/28 01:36:12;;;;;;;8.15;6.53;;;20.00;99.90;;;;;;5037241;28;20047;-73
2022/06/28 01:38:39;;;;;;;7.22;6.53;;;19.90;99.90;;;;;;5055283;28;20071;-74
2022/06/28 01:41:05;;;;;;;6.30;5.70;;;19.90;99.90;;;;;;5062517;28;20378;-73
2022/06/28 01:43:34;;;;;;;6.57;6.00;;;19.80;99.90;;;;;;5075096;28;20027;-74
2022/06/28 01:46:03;;;;;;;7.00;6.22;;;19.80;99.90;;;;;;5074578;28;20020;-73
2022/06/28 01:48:31;;;;;;;6.80;6.20;;;19.70;99.90;;;;;;5057112;28;20480;-73
2022/06/28 01:50:57;;;;;;;7.28;6.57;;;19.60;99.90;;;;;;5074739;28;20028;-73
2022/06/28 01:53:23;;;;;;;7.30;6.60;;;19.60;99.90;;;;;;5057003;28;20085;-74
2022/06/28 01:55:49;;;;;;;7.53;6.82;;;19.60;99.90;;;;;;5074723;28;20080;-74
2022/06/28 01:58:15;;;;;;;7.72;6.97;;;19.50;99.90;;;;;;5074835;28;20390;-74
2022/06/28 02:00:41;;;;;;;8.55;6.90;;;19.50;99.90;;;;;;5056757;28;20056;-73
2022/06/28 02:03:07;;;;;;;8.15;7.22;;;19.40;99.90;;;;;;5074847;28;20017;-74
2022/06/28 02:05:33;;;;;;;7.00;6.22;;;19.40;99.90;;;;;;5056452;28;20113;-73
2022/06/28 02:08:00;;;;;;;7.68;6.88;;;19.40;99.90;;;;;;5074617;28;20017;-73
2022/06/28 02:10:26;;;;;;;7.53;6.93;;;19.30;99.90;;;;;;5056633;28;20025;-73
2022/06/28 02:12:53;;;;;;;12.93;7.13;;;19.30;99.90;;;;;;5055325;28;20131;-73
2022/06/28 02:15:18;;;;;;;8.15;7.35;;;19.30;99.90;;;;;;5054550;28;20025;-73
2022/06/28 02:17:45;;;;;;;8.65;7.85;;;19.30;99.90;;;;;;5054288;28;20048;-74
2022/06/28 02:20:12;;;;;;;6.50;5.90;;;19.30;99.90;;;;;;5054431;28;20056;-73
2022/06/28 02:22:38;;;;;;;8.65;7.38;;;19.20;99.90;;;;;;5054302;28;20104;-73
2022/06/28 02:25:04;;;;;;;7.82;6.80;;;19.30;99.90;;;;;;5054412;28;20068;-73
2022/06/28 02:27:29;;;;;;;12.52;7.68;;;19.30;99.90;;;;;;5054247;28;20033;-75
2022/06/28 02:29:55;;;;;;;13.50;7.70;;;19.30;99.90;;;;;;5054194;28;20021;-75
2022/06/28 02:32:21;;;;;;;14.43;7.25;;;19.30;99.90;;;;;;5054037;28;20032;-74
2022/06/28 02:40:27;;;;;;;7.63;6.85;;;19.30;99.90;;;;;;5054891;28;20068;-73
2022/06/28 02:42:54;;;;;;;9.95;7.10;;;19.30;99.90;;;;;;5056053;28;20020;-74
2022/06/28 02:45:21;;;;;;;8.52;7.50;;;19.30;99.90;;;;;;5055954;28;20441;-74
2022/06/28 02:47:47;;;;;;;9.30;6.82;;;19.30;99.90;;;;;;5073676;28;20124;-73
2022/06/28 02:50:13;;;;;;;7.40;6.70;;;19.30;99.90;;;;;;5073834;28;20056;-73
2022/06/28 02:52:39;;;;;;;8.38;7.57;;;19.30;99.90;;;;;;5073752;28;20596;-74
2022/06/28 02:55:06;;;;;;;7.85;7.15;;;19.30;99.90;;;;;;5073839;28;20406;-73
2022/06/28 02:57:33;;;;;;;38.35;9.45;;;19.30;99.90;;;;;;5072782;28;20063;-73
2022/06/28 02:59:59;;;;;;;9.63;8.80;;;19.30;99.90;;;;;;5073837;28;20020;-73
2022/06/28 03:02:24;;;;;;;14.18;8.15;;;19.30;99.90;;;;;;5073430;28;20099;-74
2022/06/28 03:04:50;;;;;;;10.18;8.52;;;19.30;99.90;;;;;;5073460;28;20021;-74
2022/06/28 03:07:16;;;;;;;11.52;7.57;;;19.30;99.90;;;;;;5073624;28;20021;-74
2022/06/28 03:09:42;;;;;;;9.52;8.10;;;19.30;99.90;;;;;;5073465;28;20455;-73
2022/06/28 03:12:09;;;;;;;8.93;8.10;;;19.30;99.90;;;;;;5060069;28;20020;-73
2022/06/28 03:14:35;;;;;;;8.85;7.82;;;19.30;99.90;;;;;;5053428;28;20029;-73
2022/06/28 03:17:00;;;;;;;9.60;7.35;;;19.30;99.90;;;;;;5053376;28;20048;-74
2022/06/28 03:19:26;;;;;;;10.50;8.13;;;19.30;99.90;;;;;;5053311;28;20025;-73
2022/06/28 03:21:52;;;;;;;11.82;8.60;;;19.30;99.90;;;;;;5035396;28;20021;-74
2022/06/28 03:24:17;;;;;;;11.00;8.70;;;19.20;99.90;;;;;;5035423;28;20086;-73
2022/06/28 03:26:43;;;;;;;10.50;8.73;;;19.30;99.90;;;;;;5053256;28;20032;-72
2022/06/28 03:29:09;;;;;;;11.13;9.07;;;19.20;99.90;;;;;;5053307;28;20024;-74
2022/06/28 03:31:35;;;;;;;8.93;7.70;;;19.20;99.90;;;;;;5053193;28;20036;-73
2022/06/28 03:34:01;;;;;;;9.50;8.60;;;19.20;99.90;;;;;;5035154;28;20025;-74
2022/06/28 03:36:27;;;;;;;10.43;9.43;;;19.30;99.90;;;;;;5053146;28;20033;-73
2022/06/28 03:38:53;;;;;;;9.48;8.60;;;19.30;99.90;;;;;;5053045;28;20021;-73
2022/06/28 03:41:22;;;;;;;8.68;7.78;;;19.40;99.90;;;;;;5063247;28;20359;-73
2022/06/28 03:43:52;;;;;;;10.93;8.40;;;19.40;99.90;;;;;;5073022;28;20100;-75
2022/06/28 03:46:19;;;;;;;9.63;8.70;;;19.40;99.90;;;;;;5073411;28;20020;-75
2022/06/28 03:48:46;;;;;;;10.02;8.35;;;19.50;99.90;;;;;;5073209;28;20024;-74
2022/06/28 03:51:12;;;;;;;10.25;8.43;;;19.50;99.90;;;;;;5055207;28;20056;-74
2022/06/28 03:53:37;;;;;;;10.15;9.13;;;19.60;99.90;;;;;;5055074;28;20055;-73
2022/06/28 03:56:04;;;;;;;15.82;8.73;;;19.80;99.90;;;;;;5054988;28;20124;-74
2022/06/28 03:58:30;;;;;;;13.35;8.60;;;19.90;99.90;;;;;;5054971;28;20027;-74
2022/06/28 04:00:56;;;;;;;14.27;9.13;;;20.10;99.90;;;;;;5073213;28;20575;-74
2022/06/28 04:03:21;;;;;;;10.75;8.70;;;20.40;99.90;;;;;;5072858;28;20095;-75
2022/06/28 04:05:47;;;;;;;10.32;9.07;;;20.70;99.90;;;;;;5072803;28;20064;-73
2022/06/28 04:08:13;;;;;;;10.32;8.70;;;20.90;99.90;;;;;;5074905;28;20035;-74
2022/06/28 04:10:39;;;;;;;12.20;7.97;;;21.00;99.90;;;;;;5075471;28;20027;-73
2022/06/28 04:13:05;;;;;;;11.93;9.10;;;21.20;99.90;;;;;;5056700;28;20021;-75
2022/06/28 04:15:31;;;;;;;9.02;8.23;;;21.50;99.90;;;;;;5038719;28;20052;-73
2022/06/28 04:17:57;;;;;;;9.82;8.48;;;21.70;99.90;;;;;;5038919;28;20391;-74
2022/06/28 04:20:23;;;;;;;9.02;8.13;;;22.00;99.90;;;;;;5056644;28;20033;-73
2022/06/28 04:22:50;;;;;;;9.98;9.02;;;22.30;99.90;;;;;;5056560;28;20017;-73
2022/06/28 04:25:15;;;;;;;13.13;9.50;;;22.50;99.90;;;;;;5056581;28;20024;-74
2022/06/28 04:27:41;;;;;;;10.05;9.00;;;22.70;98.10;;;;;;5056447;28;20375;-75
2022/06/28 04:30:07;;;;;;;9.70;8.82;;;22.90;96.40;;;;;;5056319;28;20100;-74
2022/06/28 04:32:33;;;;;;;9.38;8.55;;;23.20;95.00;;;;;;5038326;28;20036;-74
2022/06/28 04:34:59;;;;;;;9.50;8.48;;;23.40;95.60;;;;;;5056373;28;20017;-73
2022/06/28 04:37:24;;;;;;;10.27;9.15;;;23.50;95.60;;;;;;5038293;28;20139;-73
2022/06/28 04:39:50;;;;;;;10.52;9.45;;;23.60;93.20;;;;;;5056193;28;20052;-74
2022/06/28 04:42:16;;;;;;;15.32;10.02;;;23.70;91.90;;;;;;5074637;28;20020;-74
2022/06/28 04:44:42;;;;;;;10.07;9.07;;;23.80;93.70;;;;;;5076206;28;20055;-73
2022/06/28 04:47:08;;;;;;;10.38;9.25;;;23.90;89.30;;;;;;5076248;28;20470;-74
2022/06/28 04:49:34;;;;;;;26.38;11.32;;;24.00;86.90;;;;;;5075872;28;20075;-73
2022/06/28 04:52:00;;;;;;;10.18;9.20;;;24.10;85.70;;;;;;5058201;28;20091;-74
2022/06/28 04:54:26;;;;;;;10.80;9.35;;;24.20;86.30;;;;;;5058001;28;20059;-73
2022/06/28 04:56:52;;;;;;;13.02;9.55;;;24.50;85.40;;;;;;5075967;28;20060;-74
2022/06/28 04:59:18;;;;;;;12.07;9.40;;;24.70;85.00;;;;;;5057847;28;20021;-74
2022/06/28 05:01:44;;;;;;;11.30;9.30;;;24.70;85.30;;;;;;5057884;28;20123;-75
2022/06/28 05:04:09;;;;;;;11.82;9.10;;;24.80;85.10;;;;;;5075752;28;20486;-74
2022/06/28 05:06:35;;;;;;;10.77;9.68;;;24.90;85.10;;;;;;5075719;28;20068;-75
2022/06/28 05:09:01;;;;;;;10.20;9.15;;;25.00;82.60;;;;;;5057561;28;20029;-74
2022/06/28 05:11:28;;;;;;;11.38;9.25;;;25.10;81.40;;;;;;5049280;28;20021;-73
2022/06/28 05:13:55;;;;;;;10.52;8.45;;;25.20;75.70;;;;;;5055341;28;20013;-74
2022/06/28 05:16:20;;;;;;;10.02;8.50;;;25.20;75.40;;;;;;5037489;28;20410;-74
2022/06/28 05:18:46;;;;;;;10.18;9.15;;;25.30;73.00;;;;;;5054993;28;20100;-74
2022/06/28 05:21:12;;;;;;;13.77;9.13;;;25.50;73.90;;;;;;5055074;28;20020;-72
2022/06/28 05:23:38;;;;;;;15.95;8.98;;;25.50;76.00;;;;;;5063487;28;20135;-74
2022/06/28 05:26:04;;;;;;;11.52;9.35;;;25.70;74.40;;;;;;5064652;28;20051;-72
2022/06/28 05:28:30;;;;;;;9.73;8.68;;;25.80;72.30;;;;;;5066473;28;20075;-72
2022/06/28 05:30:56;;;;;;;9.70;8.07;;;25.80;72.00;;;;;;5042368;28;20017;-74
2022/06/28 05:33:22;;;;;;;8.70;7.88;;;25.90;71.20;;;;;;5037427;28;20071;-73
2022/06/28 05:35:48;;;;;;;10.85;8.80;;;26.00;71.30;;;;;;5055120;28;20025;-73
2022/06/28 05:38:13;;;;;;;9.80;8.80;;;26.10;73.70;;;;;;5055217;28;20173;-75
2022/06/28 05:40:39;;;;;;;11.35;8.63;;;26.00;75.20;;;;;;5042295;28;20036;-72
2022/06/28 05:43:05;;;;;;;10.52;8.95;;;25.90;75.20;;;;;;5057191;28;20048;-75
2022/06/28 05:45:31;;;;;;;10.80;9.10;;;26.00;74.10;;;;;;5074947;28;20060;-75
2022/06/28 05:47:57;;;;;;;12.65;8.48;;;25.90;71.80;;;;;;5075063;28;20032;-71
2022/06/28 05:50:23;;;;;;;10.45;8.23;;;25.90;71.60;;;;;;5060996;28;20021;-72
2022/06/28 05:52:49;;;;;;;11.00;7.97;;;25.90;71.30;;;;;;5036135;28;20070;-72
2022/06/28 05:55:15;;;;;;;11.77;8.30;;;25.80;73.90;;;;;;5035983;28;20028;-72
2022/06/28 05:57:41;;;;;;;10.18;8.60;;;25.80;73.80;;;;;;5053891;28;20045;-72
2022/06/28 06:00:07;;;;;;;9.68;8.68;;;25.80;73.00;;;;;;5053743;28;20033;-71
2022/06/28 06:02:33;;;;;;;9.98;8.25;;;25.80;71.90;;;;;;5053814;28;20028;-72
2022/06/28 06:04:59;;;;;;;9.55;8.32;;;25.90;68.90;;;;;;5053613;28;20399;-72
2022/06/28 06:07:25;;;;;;;11.15;8.77;;;26.10;66.40;;;;;;5054532;28;20072;-72
2022/06/28 06:09:51;;;;;;;9.48;8.43;;;26.40;64.50;;;;;;5054281;28;20058;-73
2022/06/28 06:12:17;;;;;;;8.60;7.80;;;26.50;65.60;;;;;;5052177;28;20044;-73
2022/06/28 06:14:43;;;;;;;8.57;7.65;;;26.80;64.80;;;;;;5074156;28;20020;-75
2022/06/28 06:17:09;;;;;;;8.88;7.97;;;27.00;64.10;;;;;;5073079;28;20041;-73
2022/06/28 06:19:35;;;;;;;10.32;8.65;;;27.20;61.10;;;;;;5074114;28;21652;-75
2022/06/28 06:22:00;;;;;;;9.75;8.82;;;27.30;61.80;;;;;;5073637;28;20024;-75
2022/06/28 06:24:26;;;;;;;9.13;7.55;;;27.30;61.70;;;;;;5074000;28;20031;-74
2022/06/28 06:26:52;;;;;;;12.05;8.18;;;27.40;62.40;;;;;;5074490;28;20375;-75
2022/06/28 06:29:17;;;;;;;11.43;8.50;;;27.30;60.10;;;;;;5056396;28;20031;-74
2022/06/28 06:31:43;;;;;;;9.27;8.02;;;27.40;60.70;;;;;;5074261;28;20024;-75
2022/06/28 06:34:09;;;;;;;10.30;8.98;;;27.50;61.30;;;;;;5074345;28;20096;-73
2022/06/28 06:36:35;;;;;;;10.00;8.65;;;27.60;61.30;;;;;;5074079;28;20032;-72
2022/06/28 06:39:01;;;;;;;13.70;8.07;;;27.60;61.70;;;;;;5056185;28;20036;-72
2022/06/28 06:41:27;;;;;;;9.82;8.75;;;27.60;60.60;;;;;;5056120;28;20025;-72
2022/06/28 06:43:53;;;;;;;14.02;8.77;;;27.60;63.10;;;;;;5056242;28;20381;-75
2022/06/28 06:46:19;;;;;;;13.35;8.73;;;27.60;63.30;;;;;;5056082;28;20063;-75
2022/06/28 06:48:45;;;;;;;16.77;8.73;;;27.40;61.20;;;;;;5074100;28;20093;-75
2022/06/28 06:51:11;;;;;;;13.15;8.00;;;27.30;62.10;;;;;;5073914;28;20071;-72
2022/06/28 06:53:37;;;;;;;13.57;8.55;;;27.30;61.20;;;;;;5073954;28;20052;-75
2022/06/28 06:56:02;;;;;;;12.00;9.18;;;27.20;62.50;;;;;;5073740;28;20481;-74
2022/06/28 06:58:28;;;;;;;14.25;8.82;;;27.10;62.70;;;;;;5073933;28;20017;-72
2022/06/28 07:00:54;;;;;;;16.65;9.27;;;27.10;63.00;;;;;;5073788;28;20465;-74
2022/06/28 07:03:20;;;;;;;20.05;9.73;;;27.00;62.90;;;;;;5073794;28;20469;-72
2022/06/28 07:05:46;;;;;;;11.10;9.00;;;27.00;64.80;;;;;;5055536;28;20060;-74
2022/06/28 07:08:11;;;;;;;11.95;8.50;;;27.10;62.00;;;;;;5073824;28;20046;-72
2022/06/28 07:10:37;;;;;;;12.88;8.23;;;27.20;62.90;;;;;;5087076;28;20565;-74
2022/06/28 07:13:03;;;;;;;13.20;8.10;;;27.10;60.20;;;;;;5053700;28;20501;-73
2022/06/28 07:15:28;;;;;;;13.15;8.48;;;27.10;60.90;;;;;;5053543;28;20064;-72
2022/06/28 07:17:54;;;;;;;10.00;7.53;;;27.10;61.10;;;;;;5035728;28;20029;-73
2022/06/28 07:20:20;;;;;;;12.40;7.55;;;27.10;61.10;;;;;;5053449;28;20479;-76
2022/06/28 07:22:46;;;;;;;10.90;8.02;;;27.10;59.60;;;;;;5053651;28;20104;-74
2022/06/28 07:25:13;;;;;;;11.80;7.78;;;27.20;60.20;;;;;;5053629;28;20056;-74
2022/06/28 07:27:39;;;;;;;12.13;7.47;;;27.30;60.40;;;;;;5035647;28;20368;-72
2022/06/28 07:30:06;;;;;;;10.02;7.43;;;27.30;60.90;;;;;;5053386;28;20028;-75
2022/06/28 07:32:32;;;;;;;10.15;7.82;;;27.50;60.50;;;;;;5053273;28;20025;-75
2022/06/28 07:34:57;;;;;;;12.10;8.70;;;27.50;59.60;;;;;;5053382;28;20031;-75
2022/06/28 07:37:23;;;;;;;11.70;8.68;;;27.50;58.90;;;;;;5053237;28;20037;-75
2022/06/28 07:39:48;;;;;;;9.90;7.68;;;27.60;59.30;;;;;;5035452;28;20100;-72
2022/06/28 07:42:14;;;;;;;9.60;7.43;;;27.70;58.90;;;;;;5073725;28;20465;-75
2022/06/28 07:44:40;;;;;;;8.40;7.63;;;27.90;58.20;;;;;;5062051;28;20028;-75
2022/06/28 07:47:06;;;;;;;12.05;7.63;;;28.10;57.40;;;;;;5079984;28;20021;-75
2022/06/28 07:52:34;;;;;;;7.93;7.15;;;28.40;55.90;;;;;;5079946;28;20515;-72
2022/06/28 07:55:00;;;;;;;12.77;7.65;;;28.80;57.00;;;;;;5079971;28;20028;-75
2022/06/28 07:57:26;;;;;;;9.38;7.05;;;29.10;56.80;;;;;;5079763;28;20029;-72
2022/06/28 07:59:52;;;;;;;9.00;7.00;;;29.20;53.90;;;;;;5061835;28;20074;-75
2022/06/28 08:02:18;;;;;;;7.25;6.65;;;29.30;53.30;;;;;;5061782;28;20470;-75
2022/06/28 08:04:44;;;;;;;8.82;6.45;;;29.30;53.20;;;;;;5079752;28;20025;-72
2022/06/28 08:07:10;;;;;;;12.10;6.57;;;29.50;51.80;;;;;;5079860;28;20429;-75
2022/06/28 08:09:35;;;;;;;8.02;6.78;;;29.70;52.20;;;;;;5079614;28;20021;-75
2022/06/28 08:12:01;;;;;;;6.43;5.93;;;30.00;53.30;;;;;;5079618;28;20029;-74
2022/06/28 08:14:28;;;;;;;7.03;6.25;;;30.20;51.30;;;;;;5079506;28;20036;-74
2022/06/28 08:16:56;;;;;;;7.85;6.18;;;30.30;50.00;;;;;;5079693;28;20048;-75
2022/06/28 08:19:22;;;;;;;8.57;7.70;;;30.30;49.50;;;;;;5079687;28;20016;-72
2022/06/28 08:21:49;;;;;;;10.38;7.45;;;30.30;50.60;;;;;;5079694;28;20074;-75
2022/06/28 08:24:15;;;;;;;8.57;7.68;;;30.50;50.90;;;;;;5079775;28;20054;-75
2022/06/28 08:26:42;;;;;;;7.28;6.45;;;30.60;51.20;;;;;;5079516;28;20071;-72
2022/06/28 08:29:17;;;;;;;8.85;7.10;;;30.50;49.70;;;;;;5079597;28;20023;-72
2022/06/28 08:31:43;;;;;;;10.20;7.13;;;30.50;50.20;;;;;;5079521;28;20016;-75
2022/06/28 08:34:10;;;;;;;7.93;7.28;;;30.60;49.00;;;;;;5079608;28;20017;-75
2022/06/28 08:36:36;;;;;;;10.73;6.47;;;30.70;49.10;;;;;;5079314;28;20037;-75
2022/06/28 08:39:03;;;;;;;11.50;7.55;;;30.90;49.20;;;;;;5079499;28;20055;-75
2022/06/28 08:41:31;;;;;;;7.25;6.55;;;30.80;48.50;;;;;;5048258;28;20025;-72
2022/06/28 08:43:58;;;;;;;8.05;6.07;;;30.70;48.60;;;;;;5041507;28;20062;-75
2022/06/28 08:46:26;;;;;;;8.15;5.65;;;31.00;49.60;;;;;;5059376;28;20053;-75
2022/06/28 08:49:02;;;;;;;7.68;6.07;;;31.30;48.60;;;;;;5059420;28;20490;-72
2022/06/28 08:51:31;;;;;;;6.70;6.07;;;31.30;48.50;;;;;;5059389;28;20462;-75
2022/06/28 08:54:01;;;;;;;5.90;5.40;;;31.10;48.10;;;;;;5038979;28;20024;-76
2022/06/28 08:56:27;;;;;;;7.50;5.80;;;31.10;48.50;;;;;;5056224;28;20036;-74
2022/06/28 08:58:55;;;;;;;7.97;6.07;;;31.00;47.90;;;;;;5038149;28;20024;-73
2022/06/28 09:01:21;;;;;;;6.57;5.93;;;31.10;48.30;;;;;;5056072;28;20049;-70
2022/06/28 09:03:51;;;;;;;6.18;5.65;;;31.00;48.80;;;;;;5055525;28;20025;-70
2022/06/28 09:06:16;;;;;;;10.35;6.35;;;31.00;49.20;;;;;;5055767;28;20499;-70
2022/06/28 09:08:42;;;;;;;9.30;5.80;;;31.00;49.30;;;;;;5038046;28;20109;-71
2022/06/28 09:11:08;;;;;;;6.10;5.55;;;31.10;48.90;;;;;;5062649;28;20013;-71
2022/06/28 09:13:40;;;;;;;6.28;5.63;;;31.30;49.70;;;;;;5075816;28;20032;-71
2022/06/28 09:16:05;;;;;;;10.32;5.60;;;31.50;49.60;;;;;;5057778;28;20037;-70
2022/06/28 09:18:34;;;;;;;6.93;5.38;;;31.40;48.00;;;;;;5075744;28;20502;-70
2022/06/28 09:21:01;;;;;;;11.70;5.55;;;31.60;48.20;;;;;;5075817;28;20482;-73
2022/06/28 09:23:30;;;;;;;5.47;5.05;;;31.90;48.90;;;;;;5075520;28;20029;-73
2022/06/28 09:25:58;;;;;;;7.25;5.45;;;31.70;47.70;;;;;;5057789;28;20889;-70
2022/06/28 09:28:29;;;;;;;6.97;4.78;;;31.80;46.90;;;;;;5057599;28;20027;-73
2022/06/28 09:31:16;;;;;;;6.72;5.45;;;31.90;46.60;;;;;;5075584;28;20046;-73
2022/06/28 09:33:44;;;;;;;8.63;6.03;;;32.10;47.30;;;;;;5075595;28;20528;-73
2022/06/28 09:36:15;;;;;;;7.75;5.35;;;32.10;46.90;;;;;;5075475;28;20389;-70
2022/06/28 09:38:41;;;;;;;9.68;5.85;;;32.40;46.50;;;;;;5075511;28;20142;-73
2022/06/28 09:41:26;;;;;;;6.93;6.18;;;32.50;47.70;;;;;;5064902;28;20025;-70
2022/06/28 09:44:00;;;;;;;8.82;6.40;;;32.30;48.50;;;;;;5037388;28;20044;-70
2022/06/28 09:46:28;;;;;;;9.05;5.95;;;32.70;48.30;;;;;;5037363;28;20025;-70
2022/06/28 09:49:27;;;;;;;8.55;5.78;;;32.60;46.60;;;;;;5055161;28;20021;-70
2022/06/28 09:51:55;;;;;;;6.82;6.13;;;32.80;47.40;;;;;;5055270;28;20024;-73
2022/06/28 09:54:25;;;;;;;7.13;6.05;;;32.50;47.40;;;;;;5055018;28;20025;-71
2022/06/28 09:56:55;;;;;;;7.60;6.90;;;31.80;47.60;;;;;;5055009;28;20132;-73
2022/06/28 09:59:27;;;;;;;8.98;6.63;;;31.50;48.80;;;;;;5055084;28;20028;-71
2022/06/28 10:01:54;;;;;;;;;;;31.50;50.40;;;;;;5055555;28;20368;-70
2022/06/28 10:04:22;;;;;;;12.52;7.63;;;31.50;50.60;;;;;;5036939;28;19916;-73
2022/06/28 10:06:49;;;;;;;11.70;7.78;;;31.70;50.80;;;;;;5054503;28;20099;-70
2022/06/28 10:09:18;;;;;;;11.20;8.05;;;31.50;50.30;;;;;;5054180;28;20021;-73
2022/06/28 10:17:35;;;;;;;10.60;9.57;;;31.00;51.70;;;;;;5074894;28;20529;-73
2022/06/28 10:20:04;;;;;;;14.25;9.70;;;30.50;53.10;;;;;;5056511;28;20020;-73
2022/06/28 10:22:30;;;;;;;13.43;10.75;;;30.30;55.00;;;;;;5074406;28;20016;-73
2022/06/28 10:24:59;;;;;;;12.15;10.88;;;29.80;56.10;;;;;;5056365;28;20027;-73
2022/06/28 10:27:26;;;;;;;17.00;10.40;;;29.40;57.10;;;;;;5074419;28;20162;-73
2022/06/28 10:30:00;;;;;;;14.93;10.82;;;29.10;58.20;;;;;;5073914;28;20047;-70
2022/06/28 10:32:45;;;;;;;18.75;10.90;;;29.00;60.50;;;;;;5056434;28;20025;-75
2022/06/28 10:35:31;;;;;;;17.58;13.55;;;28.50;69.80;;;;;;5074151;28;20025;-75
2022/06/28 10:38:09;;;;;;;16.65;13.75;;;27.90;79.90;;;;;;5074163;28;20165;-75
2022/06/28 10:40:50;;;;;;;15.48;13.05;;;27.60;82.80;;;;;;5067837;28;20029;-75
2022/06/28 10:43:44;;;;;;;11.75;10.65;;;27.20;80.50;;;;;;5054217;28;20067;-71
2022/06/28 10:46:11;;;;;;;16.65;13.95;;;26.80;78.30;;;;;;5054264;28;20025;-74
2022/06/28 10:48:48;;;;;;;23.75;16.60;;;26.60;89.50;;;;;;5054026;28;20035;-75
2022/06/28 10:51:14;;;;;;;32.42;16.65;;;26.50;96.90;;;;;;5054099;28;20029;-74
2022/06/28 10:54:00;;;;;;;20.55;14.45;;;26.30;99.90;;;;;;5053922;28;20021;-75
2022/06/28 10:56:27;;;;;;;19.17;14.82;;;26.30;99.90;;;;;;5036320;28;20064;-75
2022/06/28 10:59:02;;;;;;;16.75;14.70;;;26.20;99.90;;;;;;5053852;28;20025;-75
2022/06/28 11:01:41;;;;;;;17.52;15.43;;;26.20;99.90;;;;;;5036024;28;20045;-75
2022/06/28 11:04:19;;;;;;;22.63;20.48;;;26.20;99.90;;;;;;5053654;28;20021;-71
2022/06/28 11:06:54;;;;;;;18.63;16.75;;;25.90;99.90;;;;;;5053889;28;20048;-71
2022/06/28 11:09:28;;;;;;;19.88;17.90;;;25.90;99.90;;;;;;5053658;28;20386;-71
2022/06/28 11:12:24;;;;;;;22.10;18.45;;;25.60;99.90;;;;;;5049640;28;20097;-75
2022/06/28 11:14:57;;;;;;;25.52;19.48;;;25.50;99.90;;;;;;5073509;28;20020;-74
2022/06/28 11:17:33;;;;;;;28.63;20.40;;;25.30;99.90;;;;;;5054872;28;20059;-71
2022/06/28 11:20:03;;;;;;;25.48;20.83;;;25.00;99.90;;;;;;5073596;28;20090;-71
2022/06/28 11:22:36;;;;;;;33.28;20.42;;;24.70;99.90;;;;;;5073651;28;20028;-71
2022/06/28 11:25:05;;;;;;;28.40;20.35;;;24.30;99.90;;;;;;5073527;28;20020;-71
2022/06/28 11:27:32;;;;;;;21.38;18.73;;;24.10;99.90;;;;;;5055462;28;20017;-75
2022/06/28 11:30:01;;;;;;;26.88;18.92;;;24.00;99.90;;;;;;5073393;28;20025;-71
2022/06/28 11:32:31;;;;;;;24.00;17.83;;;24.00;99.90;;;;;;5073361;28;20024;-75
2022/06/28 11:35:10;;;;;;;19.33;14.95;;;23.90;99.90;;;;;;5073322;28;20024;-72
2022/06/28 11:37:58;;;;;;;17.00;14.15;;;23.70;99.90;;;;;;5055390;28;20044;-71
2022/06/28 11:40:25;;;;;;;15.27;12.38;;;23.70;99.90;;;;;;5068424;28;20051;-71
2022/06/28 11:43:25;;;;;;;11.25;10.25;;;23.70;99.90;;;;;;5053423;28;20053;-71
2022/06/28 11:45:52;;;;;;;26.48;11.93;;;23.30;99.90;;;;;;5036079;28;20033;-74
2022/06/28 11:48:28;;;;;;;11.43;10.23;;;23.10;99.90;;;;;;5053321;28;20032;-74
2022/06/28 11:50:56;;;;;;;11.88;9.75;;;22.80;99.90;;;;;;5035224;28;20040;-74
2022/06/28 11:53:23;;;;;;;13.90;11.57;;;22.70;99.90;;;;;;5053239;28;20390;-75
2022/06/28 11:55:55;;;;;;;13.48;11.30;;;22.70;99.90;;;;;;5053025;28;20024;-71
2022/06/28 11:58:25;;;;;;;9.90;8.88;;;22.80;99.90;;;;;;5053284;28;20025;-75
2022/06/28 12:01:00;;;;;;;11.05;9.65;;;22.90;99.90;;;;;;5053374;28;20021;-75
2022/06/28 12:03:26;;;;;;;13.63;11.02;;;22.80;99.90;;;;;;5053248;28;20033;-75
2022/06/28 12:05:57;;;;;;;11.52;10.38;;;22.80;99.90;;;;;;5053089;28;20403;-75
2022/06/28 12:08:50;;;;;;;10.35;9.35;;;22.70;99.90;;;;;;5053222;28;20029;-75
2022/06/28 12:11:40;;;;;;;10.35;9.30;;;22.60;99.90;;;;;;5044089;28;20073;-74
2022/06/28 12:14:14;;;;;;;11.40;10.23;;;22.40;99.90;;;;;;5073172;28;20063;-71
2022/06/28 12:17:00;;;;;;;11.65;10.45;;;22.30;99.90;;;;;;5072898;28;20033;-75
2022/06/28 12:19:30;;;;;;;11.40;10.30;;;22.20;99.90;;;;;;5072223;28;20068;-73
2022/06/28 12:22:04;;;;;;;12.90;11.25;;;21.90;99.90;;;;;;5073010;28;20111;-74
2022/06/28 12:24:47;;;;;;;11.30;10.20;;;21.80;99.90;;;;;;5055021;28;20520;-71
2022/06/28 12:27:15;;;;;;;15.20;11.98;;;21.80;99.90;;;;;;5072991;28;20035;-75
2022/06/28 12:29:42;;;;;;;14.98;12.50;;;21.70;99.90;;;;;;5075416;28;20024;-74
2022/06/28 12:32:08;;;;;;;14.32;11.75;;;21.80;99.90;;;;;;5076643;28;20017;-75
2022/06/28 12:34:34;;;;;;;12.95;11.63;;;21.80;99.90;;;;;;5058675;28;20086;-74
2022/06/28 12:36:59;;;;;;;14.85;13.30;;;21.70;99.90;;;;;;5076470;28;20032;-72
2022/06/28 12:39:25;;;;;;;16.05;13.05;;;21.80;99.90;;;;;;5058586;28;20069;-71
2022/06/28 12:41:51;;;;;;;18.20;13.38;;;21.70;99.90;;;;;;5059013;28;20025;-75
2022/06/28 12:44:17;;;;;;;25.10;15.27;;;21.70;99.90;;;;;;5056426;28;20027;-74
2022/06/28 12:46:44;;;;;;;22.98;14.55;;;21.70;99.90;;;;;;5056299;28;20383;-72
2022/06/28 12:49:10;;;;;;;25.50;15.63;;;21.80;99.90;;;;;;5056378;28;20048;-71
2022/06/28 12:51:36;;;;;;;27.13;17.52;;;21.70;99.90;;;;;;5056321;28;20017;-74
2022/06/28 12:54:02;;;;;;;15.20;12.52;;;21.60;99.90;;;;;;5056304;28;20052;-71
2022/06/28 12:56:28;;;;;;;24.55;16.83;;;21.60;99.90;;;;;;5056022;28;20490;-74
2022/06/28 12:58:57;;;;;;;23.60;16.40;;;21.60;99.90;;;;;;5056271;28;20036;-72
2022/06/28 13:01:23;;;;;;;30.48;20.65;;;21.70;99.90;;;;;;5056213;28;20025;-74